Cudworth, Canada
Current Conditions -  °F | °C
As of 11:00 PM on Sunday 21 Dec 2014 (Local Time) from CYXE Reporting Station
Light Snow Light Snow  
Wind Chill: -9°   Ceiling: 200
Heat Index: -4°   Visibility: 0.75mi
Dew Point: -5°   Wind: 8mph
Humidity: 93%   Direction: 20°NNE
Pressure: 29.54"   Gusts: NA
Location:  52.48°N, 105.72°W
Report Text: CYXE 220500Z 02007KT 3/4SM R09/P6000FT/N -SN BR OVC002 M04/M05 A2954 RMK FG4ST4 SLP035
Loading
Personal Weather Stations






























Interactive Weather Map New forecast layout! Learn more

10-Day Weather Forecast

Advertisements
Track Severe Weather on mobile